Time;durP1;ratioP1;P1;durP2;ratioP2;P2;SDS_P1;SDS_P2;PMS_P1;PMS_P2;Temp;Humidity;BMP_temperature;BMP_pressure;BME280_temperature;BME280_humidity;BME280_pressure;Samples;Min_cycle;Max_cycle;Signal;HPM_P1;HPM_P2
2020/12/22 00:00:08;;;;;;;18.93;11.60;;;;;;;;;;4974805;28;20182;-72
2020/12/22 00:03:12;;;;;;;17.77;10.40;;;;;;;;;;5004775;28;20181;-72
2020/12/22 00:06:23;;;;;;;13.60;10.33;;;;;;;;;;5001764;28;20178;-72
2020/12/22 00:09:27;;;;;;;13.73;10.27;;;;;;;;;;4962466;28;20198;-72
2020/12/22 00:12:32;;;;;;;17.83;11.00;;;;;;;;;;4974484;28;20218;-72
2020/12/22 00:15:36;;;;;;;14.73;9.80;;;;;;;;;;5005024;28;20197;-72
2020/12/22 00:18:41;;;;;;;14.43;8.87;;;;;;;;;;5013472;28;20189;-73
2020/12/22 00:21:45;;;;;;;8.73;6.70;;;;;;;;;;5013174;28;20217;-72
2020/12/22 00:24:49;;;;;;;11.40;6.53;;;;;;;;;;5001539;28;20198;-72
2020/12/22 00:27:53;;;;;;;9.00;6.80;;;;;;;;;;5013007;28;20205;-72
2020/12/22 00:30:58;;;;;;;9.47;6.93;;;;;;;;;;5001394;28;20220;-72
2020/12/22 00:34:02;;;;;;;9.93;6.87;;;;;;;;;;5013100;28;20644;-72
2020/12/22 00:37:06;;;;;;;9.17;6.10;;;;;;;;;;5013167;28;20221;-72
2020/12/22 00:40:10;;;;;;;10.17;6.47;;;;;;;;;;5013272;28;20190;-72
2020/12/22 00:43:14;;;;;;;9.37;6.67;;;;;;;;;;5013002;28;20197;-72
2020/12/22 00:46:19;;;;;;;8.97;6.90;;;;;;;;;;5013670;28;20198;-72
2020/12/22 00:49:23;;;;;;;13.23;6.17;;;;;;;;;;5000875;28;20197;-72
2020/12/22 00:52:27;;;;;;;9.20;6.30;;;;;;;;;;5013267;28;20209;-72
2020/12/22 00:55:31;;;;;;;7.47;5.73;;;;;;;;;;5000781;28;20186;-72
2020/12/22 00:58:36;;;;;;;6.80;5.83;;;;;;;;;;5001277;28;20170;-72
2020/12/22 01:01:40;;;;;;;8.00;6.50;;;;;;;;;;5012722;28;20217;-73
2020/12/22 01:04:44;;;;;;;11.23;6.67;;;;;;;;;;5013296;28;20540;-72
2020/12/22 01:07:49;;;;;;;9.00;6.57;;;;;;;;;;5013229;28;20178;-72
2020/12/22 01:10:54;;;;;;;9.00;6.77;;;;;;;;;;5000599;28;20217;-72
2020/12/22 01:13:58;;;;;;;11.17;6.33;;;;;;;;;;5012923;28;20621;-72
2020/12/22 01:17:03;;;;;;;9.47;7.03;;;;;;;;;;5000444;28;20209;-72
2020/12/22 01:20:07;;;;;;;9.70;6.67;;;;;;;;;;5012788;28;20201;-72
2020/12/22 01:23:11;;;;;;;12.97;6.53;;;;;;;;;;5012649;28;20201;-72
2020/12/22 01:26:23;;;;;;;7.63;5.73;;;;;;;;;;5013556;28;20209;-72
2020/12/22 01:29:27;;;;;;;7.13;5.80;;;;;;;;;;5016345;28;20178;-72
2020/12/22 01:32:31;;;;;;;10.07;6.20;;;;;;;;;;5016385;28;20214;-72
2020/12/22 01:35:35;;;;;;;8.67;5.73;;;;;;;;;;5016189;28;20201;-72
2020/12/22 01:38:40;;;;;;;6.73;5.33;;;;;;;;;;5016152;28;20186;-72
2020/12/22 01:41:44;;;;;;;6.97;5.30;;;;;;;;;;5015650;28;20707;-72
2020/12/22 01:44:48;;;;;;;7.40;5.30;;;;;;;;;;5015839;28;20181;-73
2020/12/22 01:47:52;;;;;;;8.63;5.80;;;;;;;;;;4992912;28;20626;-72
2020/12/22 01:50:56;;;;;;;6.50;5.40;;;;;;;;;;5015690;28;20719;-72
2020/12/22 01:54:00;;;;;;;8.27;5.43;;;;;;;;;;5004116;28;20182;-72
2020/12/22 01:57:12;;;;;;;7.47;6.23;;;;;;;;;;4996705;28;20215;-73
2020/12/22 02:00:16;;;;;;;8.50;6.03;;;;;;;;;;4976250;28;20187;-72
2020/12/22 02:03:20;;;;;;;7.67;5.97;;;;;;;;;;4996261;28;20197;-72
2020/12/22 02:06:24;;;;;;;10.17;6.20;;;;;;;;;;5003901;28;20173;-72
2020/12/22 02:09:28;;;;;;;7.27;5.40;;;;;;;;;;5015886;28;20186;-72
2020/12/22 02:12:38;;;;;;;7.10;5.30;;;;;;;;;;5015199;28;20224;-72
2020/12/22 02:15:42;;;;;;;7.40;5.70;;;;;;;;;;5015469;28;20186;-73
2020/12/22 02:18:47;;;;;;;7.53;5.80;;;;;;;;;;4992849;28;20579;-72
2020/12/22 02:21:52;;;;;;;8.13;5.60;;;;;;;;;;5001195;28;20233;-72
2020/12/22 02:24:57;;;;;;;7.97;5.43;;;;;;;;;;5015319;28;20541;-72
2020/12/22 02:28:01;;;;;;;6.50;5.20;;;;;;;;;;5015118;28;20197;-72
2020/12/22 02:31:05;;;;;;;9.10;5.17;;;;;;;;;;5015547;28;20232;-72
2020/12/22 02:34:09;;;;;;;10.90;5.57;;;;;;;;;;5015143;28;20193;-72
2020/12/22 02:37:19;;;;;;;5.27;4.33;;;;;;;;;;5002588;28;20205;-72
2020/12/22 02:40:24;;;;;;;5.23;4.17;;;;;;;;;;5015150;28;20194;-72
2020/12/22 02:43:28;;;;;;;5.93;4.13;;;;;;;;;;5002977;28;20186;-72
2020/12/22 02:46:32;;;;;;;5.67;4.30;;;;;;;;;;5002696;28;20193;-72
2020/12/22 02:49:37;;;;;;;6.17;4.50;;;;;;;;;;5014809;28;20185;-72
2020/12/22 02:52:41;;;;;;;6.43;4.53;;;;;;;;;;4991289;28;20221;-72
2020/12/22 02:55:46;;;;;;;7.67;4.63;;;;;;;;;;5014553;28;20209;-72
2020/12/22 02:58:51;;;;;;;6.93;4.53;;;;;;;;;;5014921;28;20193;-72
2020/12/22 03:01:55;;;;;;;5.90;4.70;;;;;;;;;;5002322;28;20217;-72
2020/12/22 03:04:59;;;;;;;6.53;4.60;;;;;;;;;;5002521;28;20197;-72
2020/12/22 03:08:04;;;;;;;6.70;5.13;;;;;;;;;;5002264;28;20193;-72
2020/12/22 03:11:09;;;;;;;6.70;5.40;;;;;;;;;;5014718;28;20217;-72
2020/12/22 03:14:13;;;;;;;5.97;4.73;;;;;;;;;;5002703;28;20177;-72
2020/12/22 03:17:18;;;;;;;7.63;5.13;;;;;;;;;;5014077;28;20205;-72
2020/12/22 03:20:24;;;;;;;6.33;4.73;;;;;;;;;;5014606;28;20643;-72
2020/12/22 03:23:28;;;;;;;6.60;5.27;;;;;;;;;;5014224;28;20185;-72
2020/12/22 03:26:32;;;;;;;5.77;5.17;;;;;;;;;;5002023;28;20201;-72
2020/12/22 03:29:36;;;;;;;6.47;5.13;;;;;;;;;;5001910;28;20201;-72
2020/12/22 03:32:41;;;;;;;8.13;4.90;;;;;;;;;;5013819;28;20216;-72
2020/12/22 03:35:45;;;;;;;6.17;5.03;;;;;;;;;;5001906;28;20181;-72
2020/12/22 03:38:49;;;;;;;5.97;5.37;;;;;;;;;;5014237;28;20653;-72
2020/12/22 03:41:53;;;;;;;7.70;5.20;;;;;;;;;;5013897;28;20225;-72
2020/12/22 03:44:58;;;;;;;7.63;5.53;;;;;;;;;;5013689;28;20197;-72
2020/12/22 03:48:02;;;;;;;6.50;5.07;;;;;;;;;;5013808;28;20194;-72
2020/12/22 03:51:06;;;;;;;5.33;4.43;;;;;;;;;;5001422;28;20229;-72
2020/12/22 03:54:10;;;;;;;5.97;5.07;;;;;;;;;;5013778;28;20544;-72
2020/12/22 03:57:16;;;;;;;6.47;5.23;;;;;;;;;;5013647;28;20584;-72
2020/12/22 04:00:20;;;;;;;5.70;5.10;;;;;;;;;;5013916;28;20648;-72
2020/12/22 04:03:25;;;;;;;6.47;4.80;;;;;;;;;;5013515;28;20205;-72
2020/12/22 04:06:29;;;;;;;5.60;5.00;;;;;;;;;;5013861;28;20182;-72
2020/12/22 04:09:33;;;;;;;6.53;4.60;;;;;;;;;;4974809;28;20175;-72
2020/12/22 04:12:38;;;;;;;5.60;4.67;;;;;;;;;;4979859;28;20696;-72
2020/12/22 04:15:42;;;;;;;6.97;5.17;;;;;;;;;;5001378;28;20197;-72
2020/12/22 04:18:46;;;;;;;5.60;4.83;;;;;;;;;;5013334;28;20221;-72
2020/12/22 04:21:50;;;;;;;5.67;4.77;;;;;;;;;;5013112;28;20220;-72
2020/12/22 04:24:54;;;;;;;5.60;4.43;;;;;;;;;;5013667;28;20181;-72
2020/12/22 04:27:58;;;;;;;6.33;5.30;;;;;;;;;;4962333;28;20202;-72
2020/12/22 04:31:02;;;;;;;5.70;4.47;;;;;;;;;;4992307;28;20212;-72
2020/12/22 04:34:07;;;;;;;7.03;5.13;;;;;;;;;;5013063;28;20209;-72
2020/12/22 04:37:11;;;;;;;7.17;4.90;;;;;;;;;;5000880;28;20205;-72
2020/12/22 04:40:15;;;;;;;5.90;5.00;;;;;;;;;;5001082;28;20190;-72
2020/12/22 04:43:19;;;;;;;5.47;4.43;;;;;;;;;;5012908;28;20193;-72
2020/12/22 04:46:24;;;;;;;6.57;4.10;;;;;;;;;;4974880;28;20534;-72
2020/12/22 04:49:30;;;;;;;5.50;4.67;;;;;;;;;;4974752;28;20179;-72
2020/12/22 04:52:35;;;;;;;5.07;4.10;;;;;;;;;;5004338;28;20707;-72
2020/12/22 04:55:38;;;;;;;4.70;4.13;;;;;;;;;;5001162;28;20537;-72
2020/12/22 04:58:43;;;;;;;3.83;3.27;;;;;;;;;;4980773;28;20218;-72
2020/12/22 05:01:48;;;;;;;5.40;3.80;;;;;;;;;;4989631;28;20695;-72
2020/12/22 05:04:53;;;;;;;5.00;3.50;;;;;;;;;;4997622;28;20182;-72
2020/12/22 05:07:57;;;;;;;3.30;3.00;;;;;;;;;;4985431;28;20174;-72
2020/12/22 05:11:01;;;;;;;3.77;2.83;;;;;;;;;;5015678;28;20216;-72
2020/12/22 05:14:06;;;;;;;3.20;2.80;;;;;;;;;;4978133;28;20537;-72
2020/12/22 05:17:14;;;;;;;5.07;2.90;;;;;;;;;;4977693;28;20546;-72
2020/12/22 05:20:20;;;;;;;3.37;2.57;;;;;;;;;;4993509;28;20197;-72
2020/12/22 05:23:24;;;;;;;3.13;2.60;;;;;;;;;;5016750;28;20189;-72
2020/12/22 05:26:33;;;;;;;3.30;2.40;;;;;;;;;;5003608;28;20221;-72
2020/12/22 05:29:38;;;;;;;2.60;2.37;;;;;;;;;;4965882;28;20210;-72
2020/12/22 05:32:43;;;;;;;3.07;2.40;;;;;;;;;;4977477;28;20701;-72
2020/12/22 05:35:48;;;;;;;3.67;2.20;;;;;;;;;;5007414;28;20201;-72
2020/12/22 05:38:52;;;;;;;2.90;2.17;;;;;;;;;;5016024;28;20209;-72
2020/12/22 05:41:57;;;;;;;2.70;2.20;;;;;;;;;;5003885;28;20229;-72
2020/12/22 05:45:04;;;;;;;2.73;1.80;;;;;;;;;;5015812;28;20197;-73
2020/12/22 05:48:14;;;;;;;3.57;1.97;;;;;;;;;;5016126;28;20641;-72
2020/12/22 05:51:19;;;;;;;2.33;1.97;;;;;;;;;;5015830;28;20217;-72
2020/12/22 05:54:26;;;;;;;2.20;1.70;;;;;;;;;;4964855;28;20578;-72
2020/12/22 05:57:30;;;;;;;3.23;1.87;;;;;;;;;;4976645;28;20203;-72
2020/12/22 06:00:39;;;;;;;2.87;1.60;;;;;;;;;;4977291;28;20622;-72
2020/12/22 06:03:43;;;;;;;3.73;2.00;;;;;;;;;;4970295;28;20194;-72
2020/12/22 06:06:47;;;;;;;2.10;1.63;;;;;;;;;;5015630;28;20201;-72
2020/12/22 06:09:53;;;;;;;1.77;1.47;;;;;;;;;;5015481;28;20194;-72
2020/12/22 06:12:58;;;;;;;1.83;1.60;;;;;;;;;;5014051;28;20201;-72
2020/12/22 06:16:11;;;;;;;2.53;1.63;;;;;;;;;;5003848;28;20181;-72
2020/12/22 06:19:15;;;;;;;2.50;1.70;;;;;;;;;;5015091;28;20221;-73
2020/12/22 06:22:19;;;;;;;1.50;1.33;;;;;;;;;;5015530;28;20225;-72
2020/12/22 06:25:23;;;;;;;2.43;1.40;;;;;;;;;;5041121;22;20241;-86
2020/12/22 06:28:31;;;;;;;1.97;1.50;;;;;;;;;;4992949;28;20174;-86
2020/12/22 06:31:37;;;;;;;2.00;1.37;;;;;;;;;;5004309;28;20316;-86
2020/12/22 06:34:41;;;;;;;1.70;1.20;;;;;;;;;;4992512;28;20541;-85
2020/12/22 06:37:47;;;;;;;1.60;1.37;;;;;;;;;;4982218;28;20525;-85
2020/12/22 06:40:53;;;;;;;1.73;1.10;;;;;;;;;;4982261;28;20181;-85
2020/12/22 06:43:57;;;;;;;1.73;1.40;;;;;;;;;;4982182;28;20178;-85
2020/12/22 06:47:03;;;;;;;1.30;1.20;;;;;;;;;;4954497;28;20179;-85
2020/12/22 06:50:07;;;;;;;2.70;2.50;;;;;;;;;;4972320;28;20197;-85
2020/12/22 06:53:44;;;;;;;2.97;2.67;;;;;;;;;;4992333;28;20205;-85
2020/12/22 06:56:51;;;;;;;6.13;5.63;;;;;;;;;;4932489;28;20198;-85
2020/12/22 06:59:55;;;;;;;4.70;2.43;;;;;;;;;;4963654;28;20688;-86
2020/12/22 07:03:16;;;;;;;2.20;1.60;;;;;;;;;;4991840;28;20224;-86
2020/12/22 07:06:47;;;;;;;1.70;1.47;;;;;;;;;;4964314;28;20182;-86
2020/12/22 07:10:03;;;;;;;4.80;1.33;;;;;;;;;;4961639;28;20197;-86
2020/12/22 07:13:09;;;;;;;2.53;1.30;;;;;;;;;;4992558;28;20657;-86
2020/12/22 07:16:13;;;;;;;2.53;2.03;;;;;;;;;;4991755;28;20668;-86
2020/12/22 07:19:22;;;;;;;2.60;1.40;;;;;;;;;;4991788;28;20222;-86
2020/12/22 07:22:26;;;;;;;1.40;1.30;;;;;;;;;;4980653;28;20264;-86
2020/12/22 07:25:32;;;;;;;1.77;1.57;;;;;;;;;;4991240;28;20221;-86
2020/12/22 07:28:36;;;;;;;1.40;1.30;;;;;;;;;;4980272;28;20185;-86
2020/12/22 07:31:42;;;;;;;1.50;1.40;;;;;;;;;;4991445;28;20560;-86
2020/12/22 07:34:46;;;;;;;2.73;1.07;;;;;;;;;;4991626;28;20221;-86
2020/12/22 07:37:50;;;;;;;1.57;1.47;;;;;;;;;;4980596;28;20189;-85
2020/12/22 07:40:54;;;;;;;2.70;2.47;;;;;;;;;;4991918;28;20201;-85
2020/12/22 07:44:13;;;;;;;2.70;1.67;;;;;;;;;;4992281;28;20201;-87
2020/12/22 07:47:18;;;;;;;1.87;1.60;;;;;;;;;;4966428;28;20190;-86
2020/12/22 07:50:22;;;;;;;1.20;1.10;;;;;;;;;;4979072;28;20186;-87
2020/12/22 07:53:26;;;;;;;1.27;1.17;;;;;;;;;;4990940;28;20189;-86
2020/12/22 07:56:32;;;;;;;1.87;1.20;;;;;;;;;;4979714;28;20193;-86
2020/12/22 07:59:36;;;;;;;2.27;1.20;;;;;;;;;;4991068;28;20209;-86
2020/12/22 08:02:41;;;;;;;1.47;1.10;;;;;;;;;;5001302;28;20197;-86
2020/12/22 08:05:58;;;;;;;1.47;1.23;;;;;;;;;;4975911;28;20218;-86
2020/12/22 08:09:02;;;;;;;2.50;1.30;;;;;;;;;;4971441;28;20191;-86
2020/12/22 08:12:09;;;;;;;2.50;1.20;;;;;;;;;;4983088;28;20193;-86
2020/12/22 08:15:13;;;;;;;1.30;1.10;;;;;;;;;;4990452;28;20557;-86
2020/12/22 08:18:17;;;;;;;1.80;1.10;;;;;;;;;;4989143;28;20225;-86
2020/12/22 08:21:22;;;;;;;3.07;1.43;;;;;;;;;;4979424;28;20189;-86
2020/12/22 08:24:30;;;;;;;1.80;1.70;;;;;;;;;;4979065;28;20225;-86
2020/12/22 08:27:34;;;;;;;2.43;1.77;;;;;;;;;;4989649;28;20193;-86
2020/12/22 08:30:39;;;;;;;1.30;1.20;;;;;;;;;;4990350;28;20181;-86
2020/12/22 08:33:50;;;;;;;6.00;1.00;;;;;;;;;;4979446;28;20181;-86
2020/12/22 08:36:55;;;;;;;1.67;1.00;;;;;;;;;;4980697;28;20197;-86
2020/12/22 08:40:00;;;;;;;4.73;1.00;;;;;;;;;;4983024;28;20209;-86
2020/12/22 08:43:06;;;;;;;0.80;0.70;;;;;;;;;;4983437;28;20193;-86
2020/12/22 08:46:11;;;;;;;1.53;1.03;;;;;;;;;;4982845;28;20292;-86
2020/12/22 08:49:17;;;;;;;1.93;0.93;;;;;;;;;;4994802;28;20181;-86
2020/12/22 08:52:22;;;;;;;1.00;0.90;;;;;;;;;;4994307;28;20194;-86
2020/12/22 08:55:26;;;;;;;1.80;1.00;;;;;;;;;;4983014;28;20221;-86
2020/12/22 08:58:31;;;;;;;1.60;0.90;;;;;;;;;;4944615;28;20214;-86
2020/12/22 09:01:38;;;;;;;0.80;0.80;;;;;;;;;;4958690;28;20197;-86
2020/12/22 09:04:42;;;;;;;0.80;0.60;;;;;;;;;;5005109;28;20564;-86
2020/12/22 09:07:59;;;;;;;1.83;0.70;;;;;;;;;;4982502;28;20541;-86
2020/12/22 09:11:03;;;;;;;1.10;0.60;;;;;;;;;;5005246;28;20186;-86
2020/12/22 09:14:08;;;;;;;0.60;0.50;;;;;;;;;;4983122;28;20213;-86
2020/12/22 09:17:28;;;;;;;1.67;1.50;;;;;;;;;;4993777;28;20201;-86
2020/12/22 09:20:32;;;;;;;2.73;2.30;;;;;;;;;;4982216;28;20209;-86
2020/12/22 09:23:44;;;;;;;1.63;0.90;;;;;;;;;;4983257;28;20181;-86
2020/12/22 09:26:52;;;;;;;2.73;1.30;;;;;;;;;;4976785;28;20553;-86
2020/12/22 09:29:58;;;;;;;1.40;1.20;;;;;;;;;;4982533;28;20181;-81
2020/12/22 09:33:02;;;;;;;5.67;5.00;;;;;;;;;;4992989;28;20201;-83
2020/12/22 09:36:09;;;;;;;2.77;2.00;;;;;;;;;;4980068;28;20221;-86
2020/12/22 09:39:13;;;;;;;3.93;1.00;;;;;;;;;;4982318;28;20225;-87
2020/12/22 09:42:19;;;;;;;1.70;1.33;;;;;;;;;;4993326;28;20533;-86
2020/12/22 09:45:23;;;;;;;1.60;1.00;;;;;;;;;;4980749;28;20217;-86
2020/12/22 09:48:27;;;;;;;1.30;1.03;;;;;;;;;;4993620;28;20174;-86
2020/12/22 09:51:32;;;;;;;2.77;1.80;;;;;;;;;;4992978;28;20189;-86
2020/12/22 09:54:36;;;;;;;3.73;3.07;;;;;;;;;;4982586;28;20221;-86
2020/12/22 09:57:40;;;;;;;5.03;2.90;;;;;;;;;;4982337;28;20193;-86
2020/12/22 10:00:44;;;;;;;1.73;1.63;;;;;;;;;;4993371;28;20213;-87
2020/12/22 10:03:49;;;;;;;1.60;1.50;;;;;;;;;;4993123;28;20197;-86
2020/12/22 10:06:53;;;;;;;1.07;0.83;;;;;;;;;;4993027;28;20228;-86
2020/12/22 10:09:57;;;;;;;0.67;0.60;;;;;;;;;;4980848;28;20181;-86
2020/12/22 10:13:01;;;;;;;2.03;0.70;;;;;;;;;;4980442;28;20181;-86
2020/12/22 10:16:12;;;;;;;1.60;1.00;;;;;;;;;;4990389;28;20217;-86
2020/12/22 10:19:15;;;;;;;2.13;0.70;;;;;;;;;;4992477;28;20687;-86
2020/12/22 10:22:20;;;;;;;1.83;0.67;;;;;;;;;;4992618;28;20652;-86
2020/12/22 10:25:24;;;;;;;2.83;0.60;;;;;;;;;;4968033;28;20225;-86
2020/12/22 10:28:29;;;;;;;1.57;0.53;;;;;;;;;;4981780;28;20529;-86
2020/12/22 10:31:33;;;;;;;2.20;0.60;;;;;;;;;;4992874;28;20181;-86
2020/12/22 10:34:37;;;;;;;1.47;0.60;;;;;;;;;;4981669;28;20217;-86
2020/12/22 10:37:41;;;;;;;9.70;6.70;;;;;;;;;;4981003;28;20675;-86
2020/12/22 10:40:45;;;;;;;2.13;1.47;;;;;;;;;;5002165;28;20229;-86
2020/12/22 10:43:50;;;;;;;1.67;1.57;;;;;;;;;;4980306;28;20197;-86
2020/12/22 10:46:54;;;;;;;1.10;1.00;;;;;;;;;;4980611;28;20650;-86
2020/12/22 10:49:58;;;;;;;1.80;0.50;;;;;;;;;;5002743;28;20185;-86
2020/12/22 10:53:05;;;;;;;1.33;0.63;;;;;;;;;;4973277;28;20664;-86
2020/12/22 10:56:12;;;;;;;12.23;1.10;;;;;;;;;;4980881;28;20212;-86
2020/12/22 10:59:17;;;;;;;0.70;0.70;;;;;;;;;;4953056;28;20206;-85
2020/12/22 11:02:22;;;;;;;0.63;0.50;;;;;;;;;;4992129;28;20177;-86
2020/12/22 11:08:49;;;;;;;1.03;0.70;;;;;;;;;;4987674;28;20199;-86
2020/12/22 11:11:52;;;;;;;1.47;0.40;;;;;;;;;;4960645;28;20522;-86
2020/12/22 11:14:57;;;;;;;0.77;0.70;;;;;;;;;;4976259;28;20561;-86
2020/12/22 11:18:01;;;;;;;0.97;0.63;;;;;;;;;;4980432;28;20193;-86
2020/12/22 11:21:10;;;;;;;1.70;0.53;;;;;;;;;;4980373;28;20209;-86
2020/12/22 11:24:14;;;;;;;2.10;1.00;;;;;;;;;;4992381;28;20217;-86
2020/12/22 11:27:18;;;;;;;3.53;0.70;;;;;;;;;;4981379;28;20185;-86
2020/12/22 11:30:24;;;;;;;1.00;0.60;;;;;;;;;;4980952;28;20205;-86
2020/12/22 11:33:28;;;;;;;0.80;0.77;;;;;;;;;;4980974;28;20194;-86
2020/12/22 11:36:33;;;;;;;0.67;0.50;;;;;;;;;;4980693;28;20194;-86
2020/12/22 11:39:37;;;;;;;2.90;0.70;;;;;;;;;;4991441;28;20213;-86
2020/12/22 11:42:41;;;;;;;3.13;0.83;;;;;;;;;;4980267;28;20189;-87
2020/12/22 11:45:45;;;;;;;1.33;0.93;;;;;;;;;;5002638;28;20217;-86
2020/12/22 11:48:50;;;;;;;0.90;0.70;;;;;;;;;;4953072;28;20182;-86
2020/12/22 11:51:55;;;;;;;1.20;0.80;;;;;;;;;;5002702;28;20617;-86
2020/12/22 11:54:59;;;;;;;2.40;1.27;;;;;;;;;;4979287;28;20212;-86
2020/12/22 11:58:03;;;;;;;1.80;1.40;;;;;;;;;;4991543;28;20521;-86
2020/12/22 12:01:07;;;;;;;1.83;1.40;;;;;;;;;;4991809;28;20213;-87
2020/12/22 12:04:12;;;;;;;2.60;2.03;;;;;;;;;;4990994;28;20221;-87
2020/12/22 12:07:16;;;;;;;6.00;3.13;;;;;;;;;;4993983;28;20181;-87
2020/12/22 12:10:20;;;;;;;1.97;1.30;;;;;;;;;;4991885;28;20178;-86
2020/12/22 12:13:24;;;;;;;2.13;1.50;;;;;;;;;;4978919;28;20190;-85
2020/12/22 12:16:28;;;;;;;1.77;1.17;;;;;;;;;;4991415;28;20192;-85
2020/12/22 12:19:33;;;;;;;2.10;1.90;;;;;;;;;;4991010;28;20201;-85
2020/12/22 12:22:37;;;;;;;3.03;2.17;;;;;;;;;;4991278;28;20197;-85
2020/12/22 12:25:41;;;;;;;3.60;2.67;;;;;;;;;;5004681;22;20715;-72
2020/12/22 12:28:46;;;;;;;3.87;1.87;;;;;;;;;;4993825;28;20542;-72
2020/12/22 12:31:50;;;;;;;4.80;3.07;;;;;;;;;;4993417;28;20222;-72
2020/12/22 12:34:57;;;;;;;2.53;1.50;;;;;;;;;;5011313;28;20184;-72
2020/12/22 12:38:01;;;;;;;3.10;1.90;;;;;;;;;;4995689;28;20182;-72
2020/12/22 12:41:10;;;;;;;3.87;2.10;;;;;;;;;;4992878;28;20222;-72
2020/12/22 12:44:14;;;;;;;2.80;1.63;;;;;;;;;;5000649;28;20542;-71
2020/12/22 12:47:19;;;;;;;3.57;1.57;;;;;;;;;;5008812;28;20198;-72
2020/12/22 12:50:23;;;;;;;5.97;3.10;;;;;;;;;;5002062;28;20533;-72
2020/12/22 12:53:27;;;;;;;1.60;1.20;;;;;;;;;;5010465;28;20549;-72
2020/12/22 12:56:31;;;;;;;2.57;1.50;;;;;;;;;;4972650;28;20194;-72
2020/12/22 12:59:35;;;;;;;2.83;1.53;;;;;;;;;;5013672;28;20182;-72
2020/12/22 13:02:40;;;;;;;2.07;1.30;;;;;;;;;;4994038;28;20221;-72
2020/12/22 13:05:44;;;;;;;2.60;1.00;;;;;;;;;;4998887;28;20205;-72
2020/12/22 13:08:48;;;;;;;4.70;1.60;;;;;;;;;;5001174;28;20182;-71
2020/12/22 13:11:52;;;;;;;2.07;1.10;;;;;;;;;;5004185;28;20214;-71
2020/12/22 13:14:56;;;;;;;3.00;1.57;;;;;;;;;;4981056;28;20201;-71
2020/12/22 13:18:00;;;;;;;2.40;1.50;;;;;;;;;;4993112;28;20522;-71
2020/12/22 13:21:04;;;;;;;3.77;1.50;;;;;;;;;;4981252;28;20234;-71
2020/12/22 13:24:10;;;;;;;1.30;0.90;;;;;;;;;;4987994;28;20209;-70
2020/12/22 13:27:25;;;;;;;2.23;1.00;;;;;;;;;;4976330;28;20519;-72
2020/12/22 13:30:29;;;;;;;3.93;1.90;;;;;;;;;;4980631;28;20194;-71
2020/12/22 13:33:33;;;;;;;2.50;1.00;;;;;;;;;;4983704;28;20198;-71
2020/12/22 13:36:37;;;;;;;2.23;1.80;;;;;;;;;;4976358;28;20202;-71
2020/12/22 13:39:41;;;;;;;3.23;1.70;;;;;;;;;;4964833;28;20201;-71
2020/12/22 13:42:45;;;;;;;2.23;1.80;;;;;;;;;;5002611;28;20221;-71
2020/12/22 13:45:49;;;;;;;7.67;3.37;;;;;;;;;;5003951;28;20194;-71
2020/12/22 13:48:54;;;;;;;1.70;1.50;;;;;;;;;;4982963;28;20189;-72
2020/12/22 13:51:58;;;;;;;1.27;1.03;;;;;;;;;;4983395;28;20221;-72
2020/12/22 13:55:03;;;;;;;2.20;0.80;;;;;;;;;;4988613;28;20191;-72
2020/12/22 13:58:08;;;;;;;1.30;0.80;;;;;;;;;;5006700;28;20526;-72
2020/12/22 14:01:13;;;;;;;2.97;2.27;;;;;;;;;;4994523;28;20217;-72
2020/12/22 14:04:17;;;;;;;3.90;2.00;;;;;;;;;;4995142;28;20202;-72
2020/12/22 14:07:21;;;;;;;2.27;2.00;;;;;;;;;;4976196;28;20182;-72
2020/12/22 14:10:25;;;;;;;2.43;1.00;;;;;;;;;;4980420;28;20186;-72
2020/12/22 14:13:29;;;;;;;1.40;1.00;;;;;;;;;;4982783;28;20194;-72
2020/12/22 14:16:33;;;;;;;2.60;1.83;;;;;;;;;;4996068;28;20202;-72
2020/12/22 14:19:38;;;;;;;1.80;1.10;;;;;;;;;;4994664;28;20202;-72
2020/12/22 14:22:41;;;;;;;3.77;2.23;;;;;;;;;;4994112;28;20206;-72
2020/12/22 14:25:46;;;;;;;2.03;1.07;;;;;;;;;;4968310;28;563682;-73
2020/12/22 14:28:50;;;;;;;2.40;1.00;;;;;;;;;;4983469;28;20182;-72
2020/12/22 14:31:54;;;;;;;3.17;2.23;;;;;;;;;;5000331;28;20217;-72
2020/12/22 14:34:59;;;;;;;2.37;1.20;;;;;;;;;;4988988;28;20656;-73
2020/12/22 14:38:03;;;;;;;2.27;1.63;;;;;;;;;;5002676;28;20181;-72
2020/12/22 14:41:08;;;;;;;2.20;1.53;;;;;;;;;;4989839;28;20226;-72
2020/12/22 14:44:12;;;;;;;1.03;0.90;;;;;;;;;;4994367;28;20197;-72
2020/12/22 14:47:16;;;;;;;1.90;1.23;;;;;;;;;;5007840;28;20201;-72
2020/12/22 14:50:21;;;;;;;4.93;0.70;;;;;;;;;;4994861;28;20201;-72
2020/12/22 14:53:25;;;;;;;1.43;0.70;;;;;;;;;;4982433;28;20193;-73
2020/12/22 14:56:29;;;;;;;4.60;3.53;;;;;;;;;;4995223;28;20216;-71
2020/12/22 14:59:34;;;;;;;5.93;3.33;;;;;;;;;;4994583;28;20190;-72
2020/12/22 15:02:38;;;;;;;4.90;3.07;;;;;;;;;;5011001;28;20218;-72
2020/12/22 15:05:42;;;;;;;4.40;3.30;;;;;;;;;;5014649;28;20522;-72
2020/12/22 15:08:48;;;;;;;2.37;1.47;;;;;;;;;;4987612;28;20202;-72
2020/12/22 15:11:53;;;;;;;3.00;1.50;;;;;;;;;;4994897;28;20221;-72
2020/12/22 15:14:57;;;;;;;3.30;1.93;;;;;;;;;;4994592;28;20198;-72
2020/12/22 15:18:01;;;;;;;6.67;2.63;;;;;;;;;;4994505;28;20182;-72
2020/12/22 15:21:05;;;;;;;3.60;2.40;;;;;;;;;;4982920;28;20226;-72
2020/12/22 15:24:09;;;;;;;5.23;2.70;;;;;;;;;;4994912;28;20194;-72
2020/12/22 15:27:13;;;;;;;2.93;2.10;;;;;;;;;;4994249;28;20533;-72
2020/12/22 15:30:17;;;;;;;5.30;3.67;;;;;;;;;;4994829;28;20182;-72
2020/12/22 15:33:21;;;;;;;8.23;5.17;;;;;;;;;;4994316;28;20210;-72
2020/12/22 15:36:25;;;;;;;5.53;3.90;;;;;;;;;;4982514;28;20198;-72
2020/12/22 15:39:30;;;;;;;2.80;2.20;;;;;;;;;;4975142;28;20187;-72
2020/12/22 15:42:37;;;;;;;3.63;1.60;;;;;;;;;;4976573;28;20230;-72
2020/12/22 15:45:41;;;;;;;2.70;1.70;;;;;;;;;;4962872;28;20178;-72
2020/12/22 15:48:47;;;;;;;3.30;2.83;;;;;;;;;;5006066;28;20194;-72
2020/12/22 15:51:50;;;;;;;2.70;2.00;;;;;;;;;;5005561;28;20205;-72
2020/12/22 15:54:55;;;;;;;1.47;1.37;;;;;;;;;;5013923;28;20529;-72
2020/12/22 15:58:00;;;;;;;1.70;1.20;;;;;;;;;;4973905;28;20228;-72
2020/12/22 16:01:04;;;;;;;1.40;1.10;;;;;;;;;;4998355;28;20684;-72
2020/12/22 16:04:11;;;;;;;1.60;1.00;;;;;;;;;;4996448;28;20198;-72
2020/12/22 16:07:17;;;;;;;3.13;1.50;;;;;;;;;;4996066;28;20193;-72
2020/12/22 16:10:21;;;;;;;2.50;1.20;;;;;;;;;;5009433;28;20517;-73
2020/12/22 16:13:25;;;;;;;14.13;12.70;;;;;;;;;;5011859;28;20189;-72
2020/12/22 16:16:30;;;;;;;13.83;12.43;;;;;;;;;;5012457;28;20216;-72
2020/12/22 16:19:34;;;;;;;2.20;2.00;;;;;;;;;;4998896;28;20671;-72
2020/12/22 16:22:38;;;;;;;1.60;1.23;;;;;;;;;;4993279;28;20225;-72
2020/12/22 16:25:42;;;;;;;3.27;1.40;;;;;;;;;;4962227;28;20206;-72
2020/12/22 16:28:48;;;;;;;1.27;1.10;;;;;;;;;;4985362;28;20194;-72
2020/12/22 16:31:52;;;;;;;1.77;1.00;;;;;;;;;;4997412;28;20697;-72
2020/12/22 16:34:56;;;;;;;1.27;1.10;;;;;;;;;;4993927;28;20182;-72
2020/12/22 16:38:01;;;;;;;2.97;1.43;;;;;;;;;;4959387;28;20186;-72
2020/12/22 16:41:05;;;;;;;2.70;2.23;;;;;;;;;;4993234;28;20222;-72
2020/12/22 16:44:09;;;;;;;3.10;1.80;;;;;;;;;;4976596;28;20189;-72
2020/12/22 16:47:13;;;;;;;2.53;1.67;;;;;;;;;;4991160;28;20190;-74
2020/12/22 16:50:17;;;;;;;5.30;3.93;;;;;;;;;;4996481;28;20189;-73
2020/12/22 16:53:21;;;;;;;5.13;3.90;;;;;;;;;;5008453;28;20194;-72
2020/12/22 16:56:26;;;;;;;3.97;2.73;;;;;;;;;;5013367;28;20181;-77
2020/12/22 16:59:30;;;;;;;2.93;2.40;;;;;;;;;;4996319;28;20189;-73
2020/12/22 17:02:34;;;;;;;4.57;3.00;;;;;;;;;;5017137;28;20229;-73
2020/12/22 17:05:39;;;;;;;3.90;3.27;;;;;;;;;;5002633;28;20193;-73
2020/12/22 17:08:43;;;;;;;3.23;2.53;;;;;;;;;;4985531;28;20534;-74
2020/12/22 17:11:47;;;;;;;2.03;1.83;;;;;;;;;;4987573;28;20217;-73
2020/12/22 17:14:51;;;;;;;2.50;1.57;;;;;;;;;;5017086;28;20181;-73
2020/12/22 17:17:55;;;;;;;4.20;2.27;;;;;;;;;;5004606;28;20201;-73
2020/12/22 17:21:00;;;;;;;4.10;2.37;;;;;;;;;;4996209;28;20218;-72
2020/12/22 17:24:04;;;;;;;4.37;2.77;;;;;;;;;;4977762;28;20523;-72
2020/12/22 17:27:08;;;;;;;2.27;1.60;;;;;;;;;;4977418;28;20206;-72
2020/12/22 17:30:12;;;;;;;12.77;10.23;;;;;;;;;;4978918;28;20183;-72
2020/12/22 17:33:16;;;;;;;4.83;3.00;;;;;;;;;;5000978;28;20221;-72
2020/12/22 17:36:20;;;;;;;3.70;1.67;;;;;;;;;;4996853;28;20546;-72
2020/12/22 17:39:24;;;;;;;2.40;1.10;;;;;;;;;;4984609;28;20202;-72
2020/12/22 17:42:28;;;;;;;3.20;1.40;;;;;;;;;;4969604;28;20218;-72
2020/12/22 17:45:33;;;;;;;2.17;0.93;;;;;;;;;;5001148;28;20200;-72
2020/12/22 17:48:37;;;;;;;3.03;2.73;;;;;;;;;;4984663;28;20202;-72
2020/12/22 17:51:41;;;;;;;3.23;1.83;;;;;;;;;;4987648;28;20216;-72
2020/12/22 17:54:45;;;;;;;2.30;2.20;;;;;;;;;;4984777;28;20202;-73
2020/12/22 17:57:49;;;;;;;21.27;15.40;;;;;;;;;;5015520;28;20664;-73
2020/12/22 18:00:54;;;;;;;2.33;1.50;;;;;;;;;;5005906;28;20229;-72
2020/12/22 18:03:57;;;;;;;4.40;4.00;;;;;;;;;;5001521;28;20186;-72
2020/12/22 18:07:02;;;;;;;2.93;2.73;;;;;;;;;;5010006;28;20521;-72
2020/12/22 18:10:06;;;;;;;5.03;3.10;;;;;;;;;;5015583;28;20186;-72
2020/12/22 18:13:10;;;;;;;3.30;2.40;;;;;;;;;;5004029;28;20201;-72
2020/12/22 18:16:15;;;;;;;2.53;2.33;;;;;;;;;;4974465;28;20198;-72
2020/12/22 18:19:19;;;;;;;1.83;1.30;;;;;;;;;;4995554;28;20190;-72
2020/12/22 18:22:24;;;;;;;1.20;1.00;;;;;;;;;;4997670;28;20222;-72
2020/12/22 18:25:28;;;;;;;1.50;1.03;;;;;;;;;;4998986;28;20202;-72
2020/12/22 18:28:33;;;;;;;2.30;1.30;;;;;;;;;;4983600;28;20209;-72